Time;durP1;ratioP1;P1;durP2;ratioP2;P2;SDS_P1;SDS_P2;PMS_P1;PMS_P2;Temp;Humidity;BMP_temperature;BMP_pressure;BME280_temperature;BME280_humidity;BME280_pressure;Samples;Min_cycle;Max_cycle;Signal;HPM_P1;HPM_P2
2023/12/05 00:00:07;;;;;;;5.88;2.90;;;-3275.40;94.70;;;;;;5011772;28;20034;-76
2023/12/05 00:02:33;;;;;;;5.90;2.90;;;-3275.40;94.60;;;;;;5002933;28;20131;-76
2023/12/05 00:04:58;;;;;;;7.60;3.05;;;-3275.40;94.70;;;;;;5004169;28;20081;-76
2023/12/05 00:07:25;;;;;;;6.90;3.55;;;-3275.50;94.70;;;;;;5006948;28;20056;-76
2023/12/05 00:09:51;;;;;;;5.55;3.28;;;-3275.50;94.70;;;;;;5010324;28;20029;-76
2023/12/05 00:12:16;;;;;;;5.95;2.88;;;-3275.50;94.70;;;;;;5014715;28;20391;-76
2023/12/05 00:14:42;;;;;;;6.43;3.08;;;-3275.50;94.70;;;;;;5011391;28;20113;-76
2023/12/05 00:17:08;;;;;;;7.38;2.97;;;-3275.50;95.00;;;;;;5006406;28;20467;-76
2023/12/05 00:19:33;;;;;;;6.97;2.95;;;-3275.50;94.90;;;;;;5008598;28;20049;-76
2023/12/05 00:21:59;;;;;;;7.88;3.40;;;-3275.50;94.60;;;;;;5006829;28;20033;-76
2023/12/05 00:24:24;;;;;;;6.88;3.08;;;-3275.50;94.70;;;;;;5006774;28;20026;-76
2023/12/05 00:26:50;;;;;;;6.00;3.13;;;-3275.50;94.70;;;;;;5008990;28;20297;-76
2023/12/05 00:29:15;;;;;;;8.07;3.55;;;-3275.50;94.70;;;;;;5019027;28;20065;-76
2023/12/05 00:31:42;;;;;;;6.13;3.05;;;-3275.50;94.60;;;;;;5006460;28;20092;-76
2023/12/05 00:34:07;;;;;;;7.03;3.35;;;-3275.60;94.70;;;;;;5003558;28;20030;-76
2023/12/05 00:36:33;;;;;;;6.88;3.40;;;-3275.50;94.80;;;;;;5009816;28;20403;-76
2023/12/05 00:38:58;;;;;;;6.60;3.30;;;-3275.60;94.80;;;;;;5010595;28;20125;-76
2023/12/05 00:41:26;;;;;;;6.50;3.28;;;-3275.50;94.80;;;;;;5009094;28;20540;-76
2023/12/05 00:43:52;;;;;;;5.80;3.20;;;-3275.50;94.90;;;;;;5007538;28;20034;-76
2023/12/05 00:46:18;;;;;;;9.30;3.53;;;-3275.50;95.20;;;;;;5020963;28;20026;-76
2023/12/05 00:48:43;;;;;;;6.32;2.83;;;-3275.60;95.50;;;;;;5005427;28;20060;-76
2023/12/05 00:51:09;;;;;;;5.70;2.67;;;-3275.50;95.70;;;;;;5007138;28;20533;-76
2023/12/05 00:53:34;;;;;;;6.95;3.65;;;-3275.50;95.80;;;;;;5007719;28;20065;-76
2023/12/05 00:56:00;;;;;;;9.57;4.30;;;-3275.40;95.90;;;;;;5009140;28;20525;-76
2023/12/05 00:58:25;;;;;;;6.88;3.65;;;-3275.50;96.10;;;;;;5007398;28;20493;-76
2023/12/05 01:00:51;;;;;;;8.10;3.63;;;-3275.50;96.30;;;;;;5008943;28;20046;-76
2023/12/05 01:03:17;;;;;;;8.45;4.15;;;-3275.50;96.40;;;;;;5003845;28;20561;-76
2023/12/05 01:05:43;;;;;;;7.80;3.65;;;-3275.50;96.30;;;;;;5010323;28;20501;-76
2023/12/05 01:08:08;;;;;;;7.28;3.55;;;-3275.50;96.40;;;;;;5007920;28;20032;-76
2023/12/05 01:10:34;;;;;;;7.90;3.63;;;-3275.50;96.50;;;;;;5011151;28;20117;-76
2023/12/05 01:13:02;;;;;;;7.03;3.72;;;-3275.50;96.50;;;;;;5011377;28;20034;-76
2023/12/05 01:15:27;;;;;;;9.10;4.03;;;-3275.50;96.50;;;;;;5005894;28;20403;-76
2023/12/05 01:17:53;;;;;;;8.77;3.72;;;-3275.50;96.50;;;;;;5005239;28;20049;-77
2023/12/05 01:20:19;;;;;;;8.57;3.72;;;-3275.60;96.50;;;;;;5005856;28;20042;-77
2023/12/05 01:22:44;;;;;;;6.35;2.92;;;-3275.60;96.40;;;;;;5002035;28;20031;-76
2023/12/05 01:25:11;;;;;;;8.80;4.05;;;-3275.60;96.30;;;;;;5006283;28;20030;-76
2023/12/05 01:27:36;;;;;;;9.85;4.05;;;-3275.60;96.20;;;;;;5006873;28;20576;-76
2023/12/05 01:30:04;;;;;;;7.53;4.28;;;-3275.60;96.10;;;;;;5007771;28;20044;-76
2023/12/05 01:32:29;;;;;;;8.00;4.10;;;-3275.60;96.10;;;;;;5005933;28;20038;-76
2023/12/05 01:34:56;;;;;;;7.85;3.80;;;-3275.60;96.10;;;;;;5006789;28;20041;-76
2023/12/05 01:37:22;;;;;;;8.65;3.58;;;-3275.70;96.20;;;;;;5006888;28;20434;-76
2023/12/05 01:39:47;;;;;;;7.13;3.67;;;-3275.60;96.10;;;;;;5008560;28;20030;-76
2023/12/05 01:42:13;;;;;;;8.30;4.40;;;-3275.60;96.10;;;;;;5007291;28;20041;-76
2023/12/05 01:44:38;;;;;;;9.68;4.43;;;-3275.60;96.20;;;;;;5009799;28;20475;-76
2023/12/05 01:47:04;;;;;;;8.68;4.03;;;-3275.60;96.10;;;;;;5006184;28;20052;-76
2023/12/05 01:49:33;;;;;;;6.97;4.10;;;-3275.60;96.20;;;;;;5007160;28;20041;-76
2023/12/05 01:52:00;;;;;;;9.48;4.20;;;-3275.60;96.40;;;;;;5022420;28;20077;-77
2023/12/05 01:54:28;;;;;;;9.23;4.13;;;-3275.60;96.60;;;;;;5011197;28;20157;-76
2023/12/05 01:56:57;;;;;;;7.60;3.55;;;-3275.50;96.70;;;;;;5009778;28;20057;-76
2023/12/05 01:59:25;;;;;;;6.77;3.33;;;-3275.60;96.80;;;;;;5008575;28;20479;-77
2023/12/05 02:01:51;;;;;;;7.50;3.65;;;-3275.60;96.80;;;;;;5007698;28;20272;-76
2023/12/05 02:04:17;;;;;;;7.38;3.40;;;-3275.60;96.90;;;;;;5005872;28;20101;-76
2023/12/05 02:06:43;;;;;;;10.95;4.40;;;-3275.60;96.90;;;;;;5005782;28;20052;-76
2023/12/05 02:09:12;;;;;;;6.45;3.58;;;-3275.60;96.90;;;;;;5007615;28;20049;-77
2023/12/05 02:11:40;;;;;;;8.75;3.95;;;-3275.60;97.00;;;;;;5010644;28;20459;-76
2023/12/05 02:14:07;;;;;;;7.70;3.45;;;-3275.60;97.10;;;;;;5007083;28;20049;-76
2023/12/05 02:16:48;;;;;;;7.43;3.63;;;-3275.60;97.10;;;;;;5004499;28;20034;-76
2023/12/05 02:19:32;;;;;;;;;;;-3275.50;97.30;;;;;;5004071;28;20041;-77
2023/12/05 02:22:01;;;;;;;8.52;3.53;;;-3275.50;97.40;;;;;;5006510;28;20149;-77
2023/12/05 02:24:46;;;;;;;8.80;4.07;;;-3275.60;97.50;;;;;;5008991;28;20048;-76
2023/12/05 02:27:38;;;;;;;6.97;3.53;;;-3275.60;97.60;;;;;;5008535;28;20072;-76
2023/12/05 02:30:04;;;;;;;8.27;3.95;;;-3275.60;97.60;;;;;;5004954;28;20383;-76
2023/12/05 02:32:30;;;;;;;8.10;4.13;;;-3275.50;97.60;;;;;;5001606;28;20045;-76
2023/12/05 02:34:56;;;;;;;10.63;4.68;;;-3275.50;97.70;;;;;;5009508;28;20688;-77
2023/12/05 02:37:33;;;;;;;8.10;4.13;;;-3275.50;97.80;;;;;;5007894;28;20057;-76
2023/12/05 02:40:28;;;;;;;10.80;4.05;;;-3275.60;97.80;;;;;;5011265;28;20598;-77
2023/12/05 02:42:56;;;;;;;7.55;3.38;;;-3275.50;97.90;;;;;;5006961;28;20041;-77
2023/12/05 02:45:27;;;;;;;8.35;4.00;;;-3275.50;97.90;;;;;;5009809;28;20045;-77
2023/12/05 02:47:54;;;;;;;7.88;3.85;;;-3275.50;97.90;;;;;;5002604;28;20037;-77
2023/12/05 02:50:19;;;;;;;6.97;3.30;;;-3275.50;97.90;;;;;;5010562;28;20076;-77
2023/12/05 02:52:45;;;;;;;12.55;4.65;;;-3275.50;97.80;;;;;;5011173;28;21043;-77
2023/12/05 02:55:11;;;;;;;9.10;4.75;;;-3275.50;97.90;;;;;;5008419;28;20033;-77
2023/12/05 02:57:36;;;;;;;8.90;4.00;;;-3275.50;97.90;;;;;;5012492;28;20038;-77
2023/12/05 03:00:04;;;;;;;9.35;4.20;;;-3275.50;98.00;;;;;;5010762;28;20030;-77
2023/12/05 03:02:30;;;;;;;7.10;3.70;;;-3275.50;98.00;;;;;;5010132;28;20741;-77
2023/12/05 03:04:55;;;;;;;8.30;3.75;;;-3275.50;98.10;;;;;;5009534;28;20037;-76
2023/12/05 03:07:20;;;;;;;9.73;3.58;;;-3275.50;98.20;;;;;;5009798;28;20029;-76
2023/12/05 03:09:46;;;;;;;10.35;4.00;;;-3275.50;98.20;;;;;;5010880;28;20433;-77
2023/12/05 03:12:12;;;;;;;9.38;5.28;;;-3275.50;98.30;;;;;;5009455;28;20119;-77
2023/12/05 03:14:37;;;;;;;8.70;4.25;;;-3275.50;98.40;;;;;;5009435;28;20519;-77
2023/12/05 03:17:03;;;;;;;10.57;3.92;;;-3275.40;98.40;;;;;;5006784;28;20553;-77
2023/12/05 03:19:28;;;;;;;6.95;3.47;;;-3275.50;98.50;;;;;;5014810;28;19940;-76
2023/12/05 03:21:54;;;;;;;8.50;4.60;;;-3275.50;98.60;;;;;;5006796;28;20115;-76
2023/12/05 03:24:20;;;;;;;7.38;3.60;;;-3275.40;98.50;;;;;;5007954;28;20029;-77
2023/12/05 03:26:46;;;;;;;7.05;4.30;;;-3275.50;98.60;;;;;;5012905;28;20038;-76
2023/12/05 03:29:12;;;;;;;9.75;4.65;;;-3275.50;98.60;;;;;;5022815;28;20030;-76
2023/12/05 03:31:39;;;;;;;9.45;4.65;;;-3275.50;98.60;;;;;;5010038;28;20072;-76
2023/12/05 03:34:05;;;;;;;7.15;4.03;;;-3275.50;98.60;;;;;;5007248;28;20041;-76
2023/12/05 03:36:31;;;;;;;6.78;3.70;;;-3275.50;98.60;;;;;;5010088;28;20038;-76
2023/12/05 03:38:56;;;;;;;8.48;3.92;;;-3275.50;98.70;;;;;;5009978;28;20044;-76
2023/12/05 03:41:22;;;;;;;9.25;4.15;;;-3275.50;98.70;;;;;;5005197;28;20080;-76
2023/12/05 03:43:48;;;;;;;7.13;4.20;;;-3275.50;98.80;;;;;;5011180;28;20091;-76
2023/12/05 03:46:13;;;;;;;12.63;4.68;;;-3275.40;98.80;;;;;;5011522;28;20044;-76
2023/12/05 03:48:39;;;;;;;7.38;4.05;;;-3275.40;98.90;;;;;;5004267;28;20038;-76
2023/12/05 03:51:05;;;;;;;8.75;4.18;;;-3275.40;98.90;;;;;;5009264;28;20054;-76
2023/12/05 03:53:30;;;;;;;9.75;4.00;;;-3275.40;98.90;;;;;;5006784;28;20030;-76
2023/12/05 03:55:55;;;;;;;8.70;4.40;;;-3275.40;99.00;;;;;;5011173;28;20045;-76
2023/12/05 03:58:21;;;;;;;7.72;4.30;;;-3275.40;99.00;;;;;;5009582;28;20100;-76
2023/12/05 04:00:46;;;;;;;8.10;3.88;;;-3275.40;99.00;;;;;;5009273;28;20084;-76
2023/12/05 04:03:13;;;;;;;8.05;4.38;;;-3275.40;99.10;;;;;;5006256;28;20104;-76
2023/12/05 04:05:38;;;;;;;8.85;3.85;;;-3275.40;99.10;;;;;;5009487;28;20033;-76
2023/12/05 04:08:04;;;;;;;8.75;4.38;;;-3275.40;99.10;;;;;;5010674;28;20383;-76
2023/12/05 04:10:30;;;;;;;7.68;4.13;;;-3275.40;99.00;;;;;;5011285;28;20073;-76
2023/12/05 04:12:55;;;;;;;8.98;4.32;;;-3275.40;99.10;;;;;;5011258;28;20103;-76
2023/12/05 04:15:21;;;;;;;9.02;4.43;;;-3275.50;99.10;;;;;;5005245;28;20109;-76
2023/12/05 04:17:47;;;;;;;8.05;4.05;;;-3275.40;99.00;;;;;;5019317;28;20046;-77
2023/12/05 04:20:12;;;;;;;8.30;4.20;;;-3275.50;99.00;;;;;;5009772;28;20038;-76
2023/12/05 04:22:38;;;;;;;9.77;4.57;;;-3275.50;98.90;;;;;;5008833;28;20052;-76
2023/12/05 04:25:04;;;;;;;8.50;3.58;;;-3275.50;98.90;;;;;;5008158;28;20030;-76
2023/12/05 04:27:30;;;;;;;9.15;4.53;;;-3275.50;98.90;;;;;;5008594;28;20076;-76
2023/12/05 04:29:55;;;;;;;11.38;4.75;;;-3275.50;98.90;;;;;;5011582;28;20417;-76
2023/12/05 04:32:21;;;;;;;10.35;4.80;;;-3275.50;98.80;;;;;;5003496;28;20037;-76
2023/12/05 04:34:47;;;;;;;9.07;4.68;;;-3275.50;98.80;;;;;;5009568;28;20489;-76
2023/12/05 04:37:12;;;;;;;7.57;4.05;;;-3275.50;98.70;;;;;;5005305;28;20042;-76
2023/12/05 04:39:39;;;;;;;8.77;4.75;;;-3275.50;98.70;;;;;;5008016;28;20502;-76
2023/12/05 04:42:04;;;;;;;9.00;4.45;;;-3275.50;98.70;;;;;;5010189;28;20038;-76
2023/12/05 04:44:30;;;;;;;9.45;4.20;;;-3275.50;98.70;;;;;;5010931;28;20037;-76
2023/12/05 04:46:59;;;;;;;7.85;4.13;;;-3275.50;98.60;;;;;;5005830;28;20037;-76
2023/12/05 04:49:25;;;;;;;8.88;4.80;;;-3275.50;98.60;;;;;;5007377;28;20044;-76
2023/12/05 04:51:50;;;;;;;8.77;4.57;;;-3275.50;98.60;;;;;;5011326;28;20025;-76
2023/12/05 04:54:16;;;;;;;9.30;4.53;;;-3275.50;98.60;;;;;;5009317;28;20384;-76
2023/12/05 04:56:42;;;;;;;7.35;4.07;;;-3275.50;98.60;;;;;;5009996;28;20041;-76
2023/12/05 04:59:07;;;;;;;10.65;4.20;;;-3275.50;98.60;;;;;;5010932;28;20038;-76
2023/12/05 05:01:33;;;;;;;12.07;6.07;;;-3275.60;98.60;;;;;;5011931;28;20491;-76
2023/12/05 05:03:58;;;;;;;8.50;4.13;;;-3275.50;98.50;;;;;;4998226;28;20088;-78
2023/12/05 05:06:24;;;;;;;7.50;3.90;;;-3275.50;98.50;;;;;;5005071;28;20060;-77
2023/12/05 05:08:50;;;;;;;10.98;4.95;;;-3275.50;98.50;;;;;;5006912;28;20037;-77
2023/12/05 05:11:16;;;;;;;10.93;4.72;;;-3275.50;98.50;;;;;;5006681;28;20463;-78
2023/12/05 05:13:41;;;;;;;9.70;4.75;;;-3275.50;98.50;;;;;;5010990;28;20091;-77
2023/12/05 05:16:07;;;;;;;8.75;4.40;;;-3275.50;98.60;;;;;;5004922;28;20426;-76
2023/12/05 05:18:33;;;;;;;8.07;4.47;;;-3275.50;98.60;;;;;;5025028;28;20399;-76
2023/12/05 05:20:58;;;;;;;10.50;4.03;;;-3275.50;98.60;;;;;;5006256;28;20117;-76
2023/12/05 05:23:23;;;;;;;10.75;4.70;;;-3275.50;98.60;;;;;;5006491;28;20360;-76
2023/12/05 05:25:49;;;;;;;10.27;4.55;;;-3275.60;98.60;;;;;;5010290;28;20393;-73
2023/12/05 05:28:14;;;;;;;8.20;4.28;;;-3275.50;98.60;;;;;;5009676;28;20044;-70
2023/12/05 05:30:40;;;;;;;6.80;4.35;;;-3275.50;98.70;;;;;;5007119;28;20075;-70
2023/12/05 05:33:05;;;;;;;9.23;4.97;;;-3275.50;98.70;;;;;;4999392;28;20042;-70
2023/12/05 05:35:31;;;;;;;9.88;4.38;;;-3275.50;98.70;;;;;;5008964;28;20466;-70
2023/12/05 05:37:56;;;;;;;8.75;4.85;;;-3275.50;98.70;;;;;;5005270;28;20046;-70
2023/12/05 05:40:22;;;;;;;10.93;4.90;;;-3275.50;98.70;;;;;;5008442;28;20038;-70
2023/12/05 05:42:47;;;;;;;9.68;4.57;;;-3275.50;98.70;;;;;;5006300;28;20535;-71
2023/12/05 05:45:13;;;;;;;8.30;4.13;;;-3275.50;98.70;;;;;;5007527;28;20495;-71
2023/12/05 05:47:38;;;;;;;9.93;5.50;;;-3275.50;98.70;;;;;;5001944;28;20034;-71
2023/12/05 05:50:05;;;;;;;12.38;5.35;;;-3275.50;98.80;;;;;;5006336;28;20099;-70
2023/12/05 05:52:30;;;;;;;10.15;4.60;;;-3275.50;98.80;;;;;;5006669;28;20116;-70
2023/12/05 05:54:56;;;;;;;11.10;4.95;;;-3275.50;98.80;;;;;;5010811;28;20763;-70
2023/12/05 05:57:21;;;;;;;10.00;4.50;;;-3275.50;98.80;;;;;;5005580;28;20033;-70
2023/12/05 05:59:47;;;;;;;10.32;5.05;;;-3275.50;98.80;;;;;;5004728;28;20410;-71
2023/12/05 06:02:14;;;;;;;10.75;5.00;;;-3275.50;98.80;;;;;;5004610;28;20039;-70
2023/12/05 06:04:43;;;;;;;10.73;5.55;;;-3275.50;98.90;;;;;;5002775;28;20414;-70
2023/12/05 06:07:08;;;;;;;10.65;4.95;;;-3275.50;98.90;;;;;;5001157;28;20037;-71
2023/12/05 06:09:35;;;;;;;8.57;4.38;;;-3275.50;98.90;;;;;;5003680;28;20034;-70
2023/12/05 06:12:02;;;;;;;11.35;5.38;;;-3275.50;98.80;;;;;;5003171;28;20493;-71
2023/12/05 06:14:28;;;;;;;8.52;4.07;;;-3275.60;98.90;;;;;;5021153;28;20026;-70
2023/12/05 06:16:53;;;;;;;12.23;6.20;;;-3275.50;98.90;;;;;;5006152;28;20042;-71
2023/12/05 06:19:19;;;;;;;10.32;5.25;;;-3275.60;98.80;;;;;;5009604;28;20042;-70
2023/12/05 06:21:44;;;;;;;10.57;4.68;;;-3275.60;98.80;;;;;;5007036;28;20030;-70
2023/12/05 06:24:11;;;;;;;6.45;3.88;;;-3275.50;98.70;;;;;;5010165;28;20038;-71
2023/12/05 06:26:36;;;;;;;10.75;5.25;;;-3275.60;98.70;;;;;;5026094;28;20030;-70
2023/12/05 06:29:04;;;;;;;10.98;5.07;;;-3275.60;98.60;;;;;;5006259;28;20042;-70
2023/12/05 06:31:30;;;;;;;11.38;5.93;;;-3275.60;98.50;;;;;;5006374;28;20030;-70
2023/12/05 06:33:55;;;;;;;11.77;5.90;;;-3275.60;98.60;;;;;;5011783;28;20037;-70
2023/12/05 06:36:21;;;;;;;9.93;5.20;;;-3275.60;98.60;;;;;;5010683;28;20042;-70
2023/12/05 06:38:46;;;;;;;8.68;4.60;;;-3275.60;98.50;;;;;;5015048;28;20092;-71
2023/12/05 06:41:12;;;;;;;13.20;6.43;;;-3275.60;98.60;;;;;;5009614;28;20073;-70
2023/12/05 06:43:37;;;;;;;9.70;5.50;;;-3275.60;98.60;;;;;;5012566;28;20033;-70
2023/12/05 06:46:03;;;;;;;9.52;3.92;;;-3275.60;98.60;;;;;;5009047;28;20105;-70
2023/12/05 06:48:29;;;;;;;10.23;5.30;;;-3275.60;98.70;;;;;;5000567;28;20062;-70
2023/12/05 06:50:54;;;;;;;9.48;5.03;;;-3275.60;98.70;;;;;;5007969;28;20115;-69
2023/12/05 06:53:20;;;;;;;11.00;4.90;;;-3275.60;98.60;;;;;;5009926;28;20038;-69
2023/12/05 06:55:47;;;;;;;9.45;4.63;;;-3275.60;98.70;;;;;;5009346;28;20029;-70
2023/12/05 06:58:12;;;;;;;6.22;3.40;;;-3275.60;98.70;;;;;;5013217;28;20022;-69
2023/12/05 07:00:38;;;;;;;10.05;4.95;;;-3275.60;98.60;;;;;;5010218;28;20081;-70
2023/12/05 07:03:03;;;;;;;11.18;5.97;;;-3275.60;98.60;;;;;;5006716;28;20474;-70
2023/12/05 07:05:29;;;;;;;10.85;5.60;;;-3275.60;98.60;;;;;;5009513;28;20034;-71
2023/12/05 07:07:54;;;;;;;9.20;5.15;;;-3275.60;98.70;;;;;;5009853;28;20030;-71
2023/12/05 07:10:20;;;;;;;14.43;5.47;;;-3275.60;98.70;;;;;;5029330;28;20474;-71
2023/12/05 07:12:45;;;;;;;10.52;5.05;;;-3275.60;98.80;;;;;;5013732;28;20063;-71
2023/12/05 07:15:10;;;;;;;11.68;5.80;;;-3275.60;98.80;;;;;;5012931;28;20034;-71
2023/12/05 07:17:37;;;;;;;10.63;5.57;;;-3275.60;98.80;;;;;;5012625;28;20113;-70
2023/12/05 07:20:03;;;;;;;11.00;5.38;;;-3275.60;98.80;;;;;;5010576;28;20463;-71
2023/12/05 07:22:28;;;;;;;9.43;4.70;;;-3275.50;98.80;;;;;;5014133;28;20058;-71
2023/12/05 07:24:54;;;;;;;10.32;4.75;;;-3275.50;98.80;;;;;;5011898;28;20072;-71
2023/12/05 07:27:19;;;;;;;9.75;5.10;;;-3275.60;98.90;;;;;;5012776;28;20586;-71
2023/12/05 07:29:45;;;;;;;11.80;6.22;;;-3275.50;98.90;;;;;;5013156;28;20064;-71
2023/12/05 07:32:11;;;;;;;10.20;4.95;;;-3275.50;98.90;;;;;;5010062;28;20076;-70
2023/12/05 07:34:36;;;;;;;9.98;5.10;;;-3275.50;99.00;;;;;;5013905;28;20030;-71
2023/12/05 07:37:03;;;;;;;10.90;5.63;;;-3275.60;99.00;;;;;;5010859;28;20034;-70
2023/12/05 07:39:28;;;;;;;9.90;5.03;;;-3275.60;99.00;;;;;;5013227;28;20040;-71
2023/12/05 07:41:54;;;;;;;11.63;6.35;;;-3275.50;99.00;;;;;;5008904;28;20434;-72
2023/12/05 07:44:19;;;;;;;10.43;5.75;;;-3275.50;99.10;;;;;;5007056;28;20060;-71
2023/12/05 07:46:45;;;;;;;9.85;5.13;;;-3275.60;99.10;;;;;;5010163;28;20386;-70
2023/12/05 07:49:13;;;;;;;9.50;4.95;;;-3275.60;99.10;;;;;;5009902;28;20061;-70
2023/12/05 07:51:39;;;;;;;10.20;5.20;;;-3275.60;99.10;;;;;;5019773;28;20503;-71
2023/12/05 07:54:05;;;;;;;12.77;6.45;;;-3275.60;99.00;;;;;;5008179;28;20060;-70
2023/12/05 07:56:31;;;;;;;9.75;5.82;;;-3275.60;99.10;;;;;;5004752;28;20025;-70
2023/12/05 07:58:56;;;;;;;11.38;5.68;;;-3275.50;98.80;;;;;;5008321;28;20129;-71
2023/12/05 08:01:22;;;;;;;12.13;5.97;;;-3275.60;98.70;;;;;;5008015;28;20415;-70
2023/12/05 08:03:47;;;;;;;10.80;6.35;;;-3275.60;98.60;;;;;;5006208;28;20636;-70
2023/12/05 08:06:13;;;;;;;14.30;6.32;;;-3275.60;98.50;;;;;;5012788;28;20084;-70
2023/12/05 08:08:39;;;;;;;12.73;6.32;;;-3275.60;98.40;;;;;;5009253;28;20113;-71
2023/12/05 08:11:05;;;;;;;12.13;5.75;;;-3275.60;98.40;;;;;;5010810;28;20502;-70
2023/12/05 08:13:31;;;;;;;12.82;6.90;;;-3275.70;98.40;;;;;;5010102;28;20034;-71
2023/12/05 08:15:56;;;;;;;10.52;5.60;;;-3275.60;98.20;;;;;;5005273;28;20045;-72
2023/12/05 08:18:22;;;;;;;13.00;7.05;;;-3275.70;98.30;;;;;;5006799;28;20041;-70
2023/12/05 08:20:48;;;;;;;14.00;5.97;;;-3275.70;98.20;;;;;;5009232;28;20026;-72
2023/12/05 08:23:13;;;;;;;14.77;6.68;;;-3275.70;98.10;;;;;;5009037;28;20133;-71
2023/12/05 08:25:39;;;;;;;12.77;6.47;;;-3275.70;98.00;;;;;;5015018;28;20053;-69
2023/12/05 08:28:05;;;;;;;15.20;6.70;;;-3275.70;97.70;;;;;;5009764;28;20053;-70
2023/12/05 08:30:30;;;;;;;11.95;6.72;;;-3275.80;97.80;;;;;;5007454;28;20422;-70
2023/12/05 08:32:57;;;;;;;14.93;6.78;;;-3275.80;97.60;;;;;;5009139;28;20065;-70
2023/12/05 08:35:23;;;;;;;11.73;6.78;;;-3275.90;97.60;;;;;;5002640;28;20044;-72
2023/12/05 08:37:48;;;;;;;12.85;7.07;;;-3275.90;97.50;;;;;;5014157;28;20395;-71
2023/12/05 08:40:14;;;;;;;11.75;6.40;;;-3276.00;97.50;;;;;;5012176;28;20368;-70
2023/12/05 08:42:42;;;;;;;11.10;6.07;;;-3275.90;97.30;;;;;;5009482;28;20033;-71
2023/12/05 08:45:10;;;;;;;11.95;6.10;;;-3275.90;97.20;;;;;;5007094;28;20030;-70
2023/12/05 08:47:36;;;;;;;13.40;7.28;;;-3275.80;97.10;;;;;;5003768;28;20056;-70
2023/12/05 08:50:02;;;;;;;13.93;6.75;;;-3275.90;97.20;;;;;;5003981;28;20050;-70
2023/12/05 08:52:28;;;;;;;14.70;7.65;;;-3275.90;97.20;;;;;;5006565;28;20026;-70
2023/12/05 08:54:53;;;;;;;13.00;6.82;;;-3275.90;97.00;;;;;;5004647;28;20033;-71
2023/12/05 08:57:19;;;;;;;13.98;6.65;;;-3275.90;97.30;;;;;;5008491;28;20030;-70
2023/12/05 08:59:44;;;;;;;11.48;6.78;;;-3276.00;97.30;;;;;;5011732;28;20152;-70
2023/12/05 09:02:10;;;;;;;9.48;5.55;;;-3275.90;97.20;;;;;;5008522;28;20025;-70
2023/12/05 09:04:37;;;;;;;11.93;6.25;;;-3275.90;97.00;;;;;;5006537;28;20124;-70
2023/12/05 09:07:03;;;;;;;14.05;6.60;;;-3275.90;97.10;;;;;;5008724;28;20038;-70
2023/12/05 09:09:28;;;;;;;13.10;7.05;;;-3276.00;97.10;;;;;;5010280;28;20038;-70
2023/12/05 09:11:54;;;;;;;14.10;6.85;;;-3276.00;97.00;;;;;;5010305;28;20041;-71
2023/12/05 09:14:19;;;;;;;16.33;8.25;;;-3276.00;97.00;;;;;;5010906;28;20041;-70
2023/12/05 09:16:45;;;;;;;15.18;7.07;;;-3275.90;96.70;;;;;;5011146;28;20030;-70
2023/12/05 09:19:11;;;;;;;13.77;6.65;;;-3276.00;96.90;;;;;;5005985;28;20486;-70
2023/12/05 09:21:36;;;;;;;13.63;6.88;;;-3276.00;96.60;;;;;;5010710;28;20792;-70
2023/12/05 09:24:02;;;;;;;14.40;7.68;;;-3276.00;96.80;;;;;;5014065;28;20092;-70
2023/12/05 09:26:29;;;;;;;14.20;7.00;;;-3276.10;97.00;;;;;;5011261;28;20038;-70
2023/12/05 09:28:54;;;;;;;12.95;6.43;;;-3276.10;96.70;;;;;;5010695;28;20360;-71
2023/12/05 09:31:20;;;;;;;15.85;8.02;;;-3276.10;96.50;;;;;;5008999;28;20052;-71
2023/12/05 09:33:46;;;;;;;12.95;7.43;;;-3276.20;96.30;;;;;;5007146;28;20386;-70
2023/12/05 09:36:11;;;;;;;15.27;7.97;;;-3276.30;96.60;;;;;;5006618;28;20057;-70
2023/12/05 09:38:37;;;;;;;13.40;7.07;;;-3276.30;96.10;;;;;;5003172;28;20030;-70
2023/12/05 09:41:03;;;;;;;13.55;6.40;;;-3276.40;96.40;;;;;;5013560;28;20037;-70
2023/12/05 09:43:31;;;;;;;14.98;8.20;;;-3276.50;96.40;;;;;;5009553;28;20030;-70
2023/12/05 09:46:02;;;;;;;16.17;7.63;;;-3276.20;95.90;;;;;;5006526;28;20457;-70
2023/12/05 09:48:31;;;;;;;14.27;7.85;;;-3276.40;96.30;;;;;;5005795;28;20544;-71
2023/12/05 09:50:57;;;;;;;13.07;6.68;;;-3276.40;96.00;;;;;;5010653;28;20137;-71
2023/12/05 09:53:23;;;;;;;14.82;7.72;;;-3276.30;95.80;;;;;;5006019;28;20538;-71
2023/12/05 09:55:49;;;;;;;15.63;7.82;;;-3276.40;95.80;;;;;;5007690;28;20413;-70
2023/12/05 09:58:15;;;;;;;13.32;7.15;;;-3276.40;95.80;;;;;;5012784;28;20049;-70
2023/12/05 10:00:44;;;;;;;16.67;7.38;;;-3276.50;95.90;;;;;;5014587;28;20117;-70
2023/12/05 10:03:13;;;;;;;14.32;6.72;;;-3276.50;95.90;;;;;;5009316;28;20034;-70
2023/12/05 10:05:42;;;;;;;15.30;7.57;;;-3276.50;96.00;;;;;;5017126;28;20116;-70
2023/12/05 10:08:08;;;;;;;12.55;7.07;;;-3276.50;95.90;;;;;;5014396;28;20073;-70
2023/12/05 10:10:37;;;;;;;14.48;7.47;;;-3276.60;95.80;;;;;;5013778;28;20034;-70
2023/12/05 10:13:04;;;;;;;15.20;7.80;;;-3276.60;95.80;;;;;;5014857;28;20072;-71
2023/12/05 10:15:30;;;;;;;13.18;6.82;;;-3276.50;95.60;;;;;;5010891;28;20022;-71
2023/12/05 10:17:55;;;;;;;13.55;7.75;;;-3276.60;95.90;;;;;;5009084;28;20046;-70
2023/12/05 10:20:21;;;;;;;13.32;7.03;;;-3276.60;95.50;;;;;;5010224;28;20060;-70
2023/12/05 10:22:47;;;;;;;13.32;6.65;;;-3276.70;95.60;;;;;;5012345;28;20533;-71
2023/12/05 10:25:14;;;;;;;13.15;6.60;;;-3276.60;95.60;;;;;;5011319;28;20034;-70
2023/12/05 10:27:40;;;;;;;14.30;7.30;;;-3276.60;95.20;;;;;;5013537;28;20029;-70
2023/12/05 10:30:06;;;;;;;11.55;6.43;;;-3276.60;95.70;;;;;;5012656;28;20018;-70
2023/12/05 10:32:32;;;;;;;16.67;7.90;;;-3276.60;95.80;;;;;;5009861;28;20125;-70
2023/12/05 10:34:57;;;;;;;15.52;6.88;;;-3276.70;95.80;;;;;;5012794;28;20112;-70
2023/12/05 10:37:26;;;;;;;12.60;7.32;;;-3276.70;95.60;;;;;;5013744;28;20030;-70
2023/12/05 10:39:52;;;;;;;12.75;6.40;;;-3276.70;95.30;;;;;;5014197;28;20036;-70
2023/12/05 10:42:19;;;;;;;12.00;6.85;;;-3276.60;95.30;;;;;;5015176;28;20068;-70
2023/12/05 10:44:44;;;;;;;12.88;6.03;;;-3276.70;95.60;;;;;;5014736;28;20101;-70
2023/12/05 10:47:11;;;;;;;14.73;8.07;;;-3276.70;95.30;;;;;;5011483;28;20113;-71
2023/12/05 10:49:43;;;;;;;11.57;6.32;;;0.00;95.30;;;;;;5008400;28;20410;-71
2023/12/05 10:52:11;;;;;;;13.15;7.07;;;0.00;95.40;;;;;;5012907;28;20104;-70
2023/12/05 10:54:38;;;;;;;12.60;6.53;;;-3276.60;95.20;;;;;;5008563;28;20065;-71
2023/12/05 10:57:09;;;;;;;11.95;6.60;;;-3276.70;95.50;;;;;;5013728;28;20044;-70
2023/12/05 10:59:35;;;;;;;12.27;6.05;;;-3276.70;95.30;;;;;;5012885;28;20046;-70
2023/12/05 11:02:01;;;;;;;15.55;7.40;;;-3276.60;95.20;;;;;;5012766;28;20509;-70
2023/12/05 11:04:27;;;;;;;11.85;6.88;;;-3276.70;95.60;;;;;;5011180;28;20064;-71
2023/12/05 11:06:53;;;;;;;12.95;6.95;;;0.00;95.50;;;;;;5016807;28;20037;-70
2023/12/05 11:09:19;;;;;;;12.95;6.13;;;-3276.70;95.20;;;;;;5011630;28;20029;-70
2023/12/05 11:11:51;;;;;;;12.02;6.57;;;-3276.60;95.40;;;;;;5012392;28;20021;-71
2023/12/05 11:14:19;;;;;;;13.02;6.60;;;-3276.60;95.40;;;;;;5012233;28;20048;-70
2023/12/05 11:16:49;;;;;;;14.05;7.30;;;-3276.60;95.60;;;;;;5016825;28;20018;-71
2023/12/05 11:19:56;;;;;;;14.40;6.75;;;-3276.60;95.70;;;;;;5008523;28;20030;-71
2023/12/05 11:22:55;;;;;;;13.02;6.22;;;-3276.60;95.60;;;;;;5011838;28;20387;-71
2023/12/05 11:25:41;;;;;;;11.68;5.75;;;-3276.70;95.70;;;;;;5009287;28;20364;-71
2023/12/05 11:28:28;;;;;;;13.20;6.90;;;-3276.50;95.60;;;;;;5007856;28;20081;-71
2023/12/05 11:31:07;;;;;;;12.20;6.47;;;-3276.60;95.90;;;;;;5026114;28;23162;-71
2023/12/05 11:33:48;;;;;;;14.23;6.82;;;-3276.70;96.00;;;;;;5009506;28;20025;-71
2023/12/05 11:36:36;;;;;;;13.05;7.18;;;-3276.70;95.90;;;;;;5007717;28;20041;-71
2023/12/05 11:39:03;;;;;;;12.05;6.32;;;-3276.70;96.00;;;;;;5009780;28;20042;-71
2023/12/05 11:41:29;;;;;;;11.90;6.63;;;-3276.70;95.70;;;;;;5012229;28;20033;-71
2023/12/05 11:44:12;;;;;;;11.50;5.85;;;0.00;95.90;;;;;;5011668;28;20475;-71
2023/12/05 11:46:45;;;;;;;11.20;6.63;;;0.00;96.10;;;;;;5010745;28;20479;-71
2023/12/05 11:49:10;;;;;;;11.07;5.72;;;0.00;95.80;;;;;;5012059;28;20109;-70
2023/12/05 11:51:37;;;;;;;13.52;6.53;;;0.00;95.70;;;;;;5011735;28;20133;-71
2023/12/05 11:54:05;;;;;;;12.55;6.68;;;0.00;95.90;;;;;;5010006;28;20363;-71
2023/12/05 11:56:31;;;;;;;12.80;6.68;;;0.10;96.20;;;;;;5010603;28;20021;-71
2023/12/05 11:59:23;;;;;;;16.00;7.18;;;-3276.70;96.10;;;;;;5011759;28;20375;-71
2023/12/05 12:01:49;;;;;;;10.18;5.85;;;0.00;96.40;;;;;;5007850;28;20041;-70
2023/12/05 12:04:22;;;;;;;12.77;6.82;;;0.00;96.30;;;;;;5007803;28;20037;-70
2023/12/05 12:06:49;;;;;;;11.40;6.05;;;0.00;96.60;;;;;;5009398;28;20498;-70
2023/12/05 12:09:15;;;;;;;13.88;7.18;;;0.00;96.70;;;;;;5007263;28;20504;-70
2023/12/05 12:11:42;;;;;;;12.80;6.57;;;0.00;96.70;;;;;;5010879;28;20030;-70
2023/12/05 12:14:15;;;;;;;14.30;7.03;;;0.00;96.50;;;;;;5006688;28;20038;-70